sensor_id;sensor_type;location;lat;lon;timestamp;pressure;altitude;pressure_sealevel;temperature;humidity
36600;BME280;35385;55.668;37.508;2023-01-28T00:00:41;99911.75;;;0.02;100.00
36600;BME280;35385;55.668;37.508;2023-01-28T00:01:42;99965.72;;;0.35;100.00
36600;BME280;35385;55.668;37.508;2023-01-28T00:02:42;99965.84;;;0.32;100.00
36600;BME280;35385;55.668;37.508;2023-01-28T00:03:43;99975.28;;;0.38;100.00
36600;BME280;35385;55.668;37.508;2023-01-28T00:04:43;99958.41;;;0.20;100.00
36600;BME280;35385;55.668;37.508;2023-01-28T00:05:44;99989.13;;;0.43;100.00
36600;BME280;35385;55.668;37.508;2023-01-28T00:06:44;99985.75;;;0.40;100.00
36600;BME280;35385;55.668;37.508;2023-01-28T00:07:48;99964.72;;;0.40;100.00
36600;BME280;35385;55.668;37.508;2023-01-28T00:08:49;99899.47;;;0.03;100.00
36600;BME280;35385;55.668;37.508;2023-01-28T00:09:49;99843.78;;;-0.30;100.00
36600;BME280;35385;55.668;37.508;2023-01-28T00:10:50;99956.03;;;0.38;100.00
36600;BME280;35385;55.668;37.508;2023-01-28T00:11:50;99966.53;;;0.38;100.00
36600;BME280;35385;55.668;37.508;2023-01-28T00:12:51;99903.94;;;0.00;100.00
36600;BME280;35385;55.668;37.508;2023-01-28T00:13:52;99973.63;;;0.35;100.00
36600;BME280;35385;55.668;37.508;2023-01-28T00:14:53;99912.56;;;0.04;100.00
36600;BME280;35385;55.668;37.508;2023-01-28T00:15:58;99982.41;;;0.34;100.00
36600;BME280;35385;55.668;37.508;2023-01-28T00:16:59;99971.31;;;0.26;100.00
36600;BME280;35385;55.668;37.508;2023-01-28T00:17:59;99968.81;;;0.23;100.00
36600;BME280;35385;55.668;37.508;2023-01-28T00:19:00;99982.94;;;0.19;100.00
36600;BME280;35385;55.668;37.508;2023-01-28T00:20:00;99956.06;;;0.13;100.00
36600;BME280;35385;55.668;37.508;2023-01-28T00:21:07;99977.69;;;0.19;100.00
36600;BME280;35385;55.668;37.508;2023-01-28T00:22:07;99955.28;;;0.09;100.00
36600;BME280;35385;55.668;37.508;2023-01-28T00:23:08;99981.22;;;0.18;100.00
36600;BME280;35385;55.668;37.508;2023-01-28T00:24:08;99972.13;;;0.04;100.00
36600;BME280;35385;55.668;37.508;2023-01-28T00:25:09;99971.06;;;0.09;100.00
36600;BME280;35385;55.668;37.508;2023-01-28T00:26:12;99984.28;;;0.06;100.00
36600;BME280;35385;55.668;37.508;2023-01-28T00:27:13;99906.09;;;-0.36;100.00
36600;BME280;35385;55.668;37.508;2023-01-28T00:28:14;99939.94;;;-0.28;100.00
36600;BME280;35385;55.668;37.508;2023-01-28T00:29:15;99982.31;;;0.13;100.00
36600;BME280;35385;55.668;37.508;2023-01-28T00:30:16;99981.66;;;0.06;100.00
36600;BME280;35385;55.668;37.508;2023-01-28T00:31:18;99982.31;;;0.13;100.00
36600;BME280;35385;55.668;37.508;2023-01-28T00:32:19;99983.47;;;0.04;100.00
36600;BME280;35385;55.668;37.508;2023-01-28T00:33:19;99967.72;;;0.04;100.00
36600;BME280;35385;55.668;37.508;2023-01-28T00:34:20;99975.41;;;0.10;100.00
36600;BME280;35385;55.668;37.508;2023-01-28T00:35:20;99971.91;;;0.10;100.00
36600;BME280;35385;55.668;37.508;2023-01-28T00:36:22;99946.88;;;-0.01;100.00
36600;BME280;35385;55.668;37.508;2023-01-28T00:37:23;99966.25;;;-0.03;100.00
36600;BME280;35385;55.668;37.508;2023-01-28T00:38:24;99976.66;;;0.00;100.00
36600;BME280;35385;55.668;37.508;2023-01-28T00:39:25;99967.81;;;0.01;100.00
36600;BME280;35385;55.668;37.508;2023-01-28T00:40:26;99970.44;;;0.01;100.00
36600;BME280;35385;55.668;37.508;2023-01-28T00:41:28;99984.09;;;0.12;100.00
36600;BME280;35385;55.668;37.508;2023-01-28T00:42:28;99967.81;;;0.01;100.00
36600;BME280;35385;55.668;37.508;2023-01-28T00:43:29;99962.47;;;0.04;100.00
36600;BME280;35385;55.668;37.508;2023-01-28T00:44:29;99910.34;;;-0.31;100.00
36600;BME280;35385;55.668;37.508;2023-01-28T00:45:30;99974.59;;;0.08;100.00
36600;BME280;35385;55.668;37.508;2023-01-28T00:46:31;99981.34;;;0.15;100.00
36600;BME280;35385;55.668;37.508;2023-01-28T00:47:31;99894.28;;;-0.49;100.00
36600;BME280;35385;55.668;37.508;2023-01-28T00:48:32;99994.22;;;-0.02;100.00
36600;BME280;35385;55.668;37.508;2023-01-28T00:49:33;99978.56;;;-0.05;100.00
36600;BME280;35385;55.668;37.508;2023-01-28T00:50:33;99942.66;;;-0.29;100.00
36600;BME280;35385;55.668;37.508;2023-01-28T00:51:34;99980.94;;;0.01;100.00
36600;BME280;35385;55.668;37.508;2023-01-28T00:52:35;99925.13;;;-0.29;100.00
36600;BME280;35385;55.668;37.508;2023-01-28T00:53:36;99952.53;;;-0.13;100.00
36600;BME280;35385;55.668;37.508;2023-01-28T00:54:37;99988.53;;;0.10;100.00
36600;BME280;35385;55.668;37.508;2023-01-28T00:55:38;99970.41;;;0.03;100.00
36600;BME280;35385;55.668;37.508;2023-01-28T00:56:38;99990.47;;;0.05;100.00
36600;BME280;35385;55.668;37.508;2023-01-28T00:57:39;99985.25;;;0.04;100.00
36600;BME280;35385;55.668;37.508;2023-01-28T00:58:40;99993.13;;;0.04;100.00
36600;BME280;35385;55.668;37.508;2023-01-28T00:59:40;99980.75;;;0.07;100.00
36600;BME280;35385;55.668;37.508;2023-01-28T01:00:41;99962.94;;;-0.10;100.00
36600;BME280;35385;55.668;37.508;2023-01-28T01:01:41;99988.16;;;-0.04;100.00
36600;BME280;35385;55.668;37.508;2023-01-28T01:02:42;99858.41;;;-0.73;100.00
36600;BME280;35385;55.668;37.508;2023-01-28T01:03:43;99986.69;;;-0.13;100.00
36600;BME280;35385;55.668;37.508;2023-01-28T01:04:44;99979.66;;;-0.12;100.00
36600;BME280;35385;55.668;37.508;2023-01-28T01:05:56;99987.00;;;-0.22;100.00
36600;BME280;35385;55.668;37.508;2023-01-28T01:06:56;99981.84;;;-0.25;100.00
36600;BME280;35385;55.668;37.508;2023-01-28T01:07:57;99977.16;;;-0.15;100.00
36600;BME280;35385;55.668;37.508;2023-01-28T01:08:57;99978.84;;;-0.14;100.00
36600;BME280;35385;55.668;37.508;2023-01-28T01:09:59;99916.59;;;-0.36;100.00
36600;BME280;35385;55.668;37.508;2023-01-28T01:11:01;100000.28;;;0.00;100.00
36600;BME280;35385;55.668;37.508;2023-01-28T01:12:02;99967.63;;;-0.18;100.00
36600;BME280;35385;55.668;37.508;2023-01-28T01:13:04;99996.84;;;-0.02;100.00
36600;BME280;35385;55.668;37.508;2023-01-28T01:14:05;99989.81;;;-0.02;100.00
36600;BME280;35385;55.668;37.508;2023-01-28T01:15:07;99917.81;;;-0.46;100.00
36600;BME280;35385;55.668;37.508;2023-01-28T01:16:12;100009.00;;;0.00;100.00
36600;BME280;35385;55.668;37.508;2023-01-28T01:17:13;99983.00;;;-0.07;100.00
36600;BME280;35385;55.668;37.508;2023-01-28T01:18:14;99892.41;;;-0.72;100.00
36600;BME280;35385;55.668;37.508;2023-01-28T01:19:14;99987.53;;;-0.12;100.00
36600;BME280;35385;55.668;37.508;2023-01-28T01:20:20;99990.16;;;-0.12;100.00
36600;BME280;35385;55.668;37.508;2023-01-28T01:21:24;99977.16;;;-0.15;100.00
36600;BME280;35385;55.668;37.508;2023-01-28T01:22:25;100000.53;;;-0.08;100.00
36600;BME280;35385;55.668;37.508;2023-01-28T01:23:29;99987.75;;;-0.18;100.00
36600;BME280;35385;55.668;37.508;2023-01-28T01:24:30;99931.81;;;-0.45;100.00
36600;BME280;35385;55.668;37.508;2023-01-28T01:25:33;99989.97;;;-0.06;100.00
36600;BME280;35385;55.668;37.508;2023-01-28T01:26:33;100003.88;;;-0.03;100.00
36600;BME280;35385;55.668;37.508;2023-01-28T01:27:35;99996.63;;;0.04;100.00
36600;BME280;35385;55.668;37.508;2023-01-28T01:28:36;99922.03;;;-0.42;100.00
36600;BME280;35385;55.668;37.508;2023-01-28T01:29:36;99955.44;;;-0.20;100.00
36600;BME280;35385;55.668;37.508;2023-01-28T01:30:38;99992.66;;;-0.08;100.00
36600;BME280;35385;55.668;37.508;2023-01-28T01:31:39;99989.16;;;-0.08;100.00
36600;BME280;35385;55.668;37.508;2023-01-28T01:32:40;99998.59;;;-0.03;100.00
36600;BME280;35385;55.668;37.508;2023-01-28T01:33:41;99920.53;;;-0.49;100.00
36600;BME280;35385;55.668;37.508;2023-01-28T01:34:42;99989.81;;;-0.02;100.00
36600;BME280;35385;55.668;37.508;2023-01-28T01:35:42;99915.78;;;-0.64;100.00
36600;BME280;35385;55.668;37.508;2023-01-28T01:36:43;99974.16;;;-0.29;100.00
36600;BME280;35385;55.668;37.508;2023-01-28T01:37:43;99984.47;;;-0.25;100.00
36600;BME280;35385;55.668;37.508;2023-01-28T01:38:44;99903.91;;;-0.74;100.00
36600;BME280;35385;55.668;37.508;2023-01-28T01:39:45;99983.84;;;-0.31;100.00
36600;BME280;35385;55.668;37.508;2023-01-28T01:40:45;99991.91;;;-0.38;100.00
36600;BME280;35385;55.668;37.508;2023-01-28T01:41:46;99989.81;;;-0.28;100.00
36600;BME280;35385;55.668;37.508;2023-01-28T01:42:47;99969.94;;;-0.35;100.00
36600;BME280;35385;55.668;37.508;2023-01-28T01:43:56;99977.44;;;-0.24;100.00
36600;BME280;35385;55.668;37.508;2023-01-28T01:45:01;99979.97;;;-0.21;100.00
36600;BME280;35385;55.668;37.508;2023-01-28T01:46:02;99990.19;;;-0.39;100.00
36600;BME280;35385;55.668;37.508;2023-01-28T01:47:03;99972.72;;;-0.40;100.00
36600;BME280;35385;55.668;37.508;2023-01-28T01:48:16;99976.06;;;-0.34;100.00
36600;BME280;35385;55.668;37.508;2023-01-28T01:49:24;99982.94;;;-0.30;100.00
36600;BME280;35385;55.668;37.508;2023-01-28T01:50:30;99978.47;;;-0.28;100.00
36600;BME280;35385;55.668;37.508;2023-01-28T01:51:33;99977.34;;;-0.21;100.00
36600;BME280;35385;55.668;37.508;2023-01-28T01:52:35;99984.47;;;-0.25;100.00
36600;BME280;35385;55.668;37.508;2023-01-28T01:53:41;99968.91;;;-0.57;100.00
36600;BME280;35385;55.668;37.508;2023-01-28T01:54:46;99980.09;;;-0.51;100.00
36600;BME280;35385;55.668;37.508;2023-01-28T01:55:49;99969.59;;;-0.51;100.00
36600;BME280;35385;55.668;37.508;2023-01-28T01:56:52;99986.69;;;-0.39;100.00
36600;BME280;35385;55.668;37.508;2023-01-28T01:57:54;99904.34;;;-0.88;100.00
36600;BME280;35385;55.668;37.508;2023-01-28T01:58:56;99993.97;;;-0.47;100.00
36600;BME280;35385;55.668;37.508;2023-01-28T01:59:59;99976.28;;;-0.68;100.00
36600;BME280;35385;55.668;37.508;2023-01-28T02:01:05;99984.47;;;-0.51;100.00
36600;BME280;35385;55.668;37.508;2023-01-28T02:02:07;99988.91;;;-0.53;100.00
36600;BME280;35385;55.668;37.508;2023-01-28T02:03:09;99903.81;;;-0.99;100.00
36600;BME280;35385;55.668;37.508;2023-01-28T02:04:25;99914.97;;;-0.92;100.00
36600;BME280;35385;55.668;37.508;2023-01-28T02:05:25;99983.84;;;-0.58;100.00
36600;BME280;35385;55.668;37.508;2023-01-28T02:06:27;99984.78;;;-0.60;100.00
36600;BME280;35385;55.668;37.508;2023-01-28T02:07:28;99987.25;;;-0.56;100.00
36600;BME280;35385;55.668;37.508;2023-01-28T02:08:28;99981.38;;;-0.64;100.00
36600;BME280;35385;55.668;37.508;2023-01-28T02:09:31;99966.38;;;-0.59;100.00
36600;BME280;35385;55.668;37.508;2023-01-28T02:10:33;99982.00;;;-0.56;100.00
36600;BME280;35385;55.668;37.508;2023-01-28T02:11:34;99920.00;;;-0.86;100.00
36600;BME280;35385;55.668;37.508;2023-01-28T02:12:38;99965.47;;;-0.58;100.00
36600;BME280;35385;55.668;37.508;2023-01-28T02:13:43;99986.75;;;-0.41;100.00
36600;BME280;35385;55.668;37.508;2023-01-28T02:15:02;99986.75;;;-0.41;100.00
36600;BME280;35385;55.668;37.508;2023-01-28T02:16:04;99985.25;;;-0.48;100.00
36600;BME280;35385;55.668;37.508;2023-01-28T02:17:05;99924.59;;;-0.93;100.00
36600;BME280;35385;55.668;37.508;2023-01-28T02:18:06;99994.13;;;-0.52;100.00
36600;BME280;35385;55.668;37.508;2023-01-28T02:19:07;99932.03;;;-0.79;100.00
36600;BME280;35385;55.668;37.508;2023-01-28T02:25:52;99998.56;;;-0.27;100.00
36600;BME280;35385;55.668;37.508;2023-01-28T02:27:36;100005.19;;;-0.16;100.00
36600;BME280;35385;55.668;37.508;2023-01-28T02:30:14;99962.22;;;-0.40;100.00
36600;BME280;35385;55.668;37.508;2023-01-28T02:31:38;99998.56;;;-0.27;100.00
36600;BME280;35385;55.668;37.508;2023-01-28T02:32:58;100001.19;;;-0.27;100.00
36600;BME280;35385;55.668;37.508;2023-01-28T02:39:32;99941.91;;;-0.59;100.00
36600;BME280;35385;55.668;37.508;2023-01-28T02:40:36;100024.72;;;-0.24;100.00
36600;BME280;35385;55.668;37.508;2023-01-28T02:42:17;100002.22;;;-0.31;100.00
36600;BME280;35385;55.668;37.508;2023-01-28T02:44:37;99977.22;;;-0.99;100.00
36600;BME280;35385;55.668;37.508;2023-01-28T02:45:38;99917.94;;;-1.31;100.00
36600;BME280;35385;55.668;37.508;2023-01-28T02:46:57;99999.41;;;-0.81;100.00
36600;BME280;35385;55.668;37.508;2023-01-28T02:48:17;100011.97;;;-0.63;100.00
36600;BME280;35385;55.668;37.508;2023-01-28T02:49:29;100000.34;;;-0.56;100.00
36600;BME280;35385;55.668;37.508;2023-01-28T02:50:38;99996.03;;;-0.57;100.00
36600;BME280;35385;55.668;37.508;2023-01-28T02:53:30;99990.50;;;-0.48;100.00
36600;BME280;35385;55.668;37.508;2023-01-28T02:54:58;100002.72;;;-0.47;100.00
36600;BME280;35385;55.668;37.508;2023-01-28T02:56:10;99931.63;;;-0.93;100.00
36600;BME280;35385;55.668;37.508;2023-01-28T03:00:31;100005.13;;;-0.41;100.00
36600;BME280;35385;55.668;37.508;2023-01-28T03:01:41;100015.56;;;-0.39;100.00
36600;BME280;35385;55.668;37.508;2023-01-28T03:04:25;99997.50;;;-0.48;100.00
36600;BME280;35385;55.668;37.508;2023-01-28T03:05:44;100032.03;;;-0.34;100.00
36600;BME280;35385;55.668;37.508;2023-01-28T03:07:04;100029.81;;;-0.46;100.00
36600;BME280;35385;55.668;37.508;2023-01-28T03:08:06;100032.19;;;-0.39;100.00
36600;BME280;35385;55.668;37.508;2023-01-28T03:09:26;99944.63;;;-0.90;100.00
36600;BME280;35385;55.668;37.508;2023-01-28T03:10:27;100020.69;;;-0.34;100.00
36600;BME280;35385;55.668;37.508;2023-01-28T03:11:31;100017.16;;;-0.33;100.00
36600;BME280;35385;55.668;37.508;2023-01-28T03:12:54;100012.75;;;-0.33;100.00
36600;BME280;35385;55.668;37.508;2023-01-28T03:14:15;100017.97;;;-0.31;100.00
36600;BME280;35385;55.668;37.508;2023-01-28T03:15:53;99950.44;;;-0.81;100.00
36600;BME280;35385;55.668;37.508;2023-01-28T03:17:16;99906.69;;;-1.07;100.00
36600;BME280;35385;55.668;37.508;2023-01-28T03:20:02;99918.84;;;-1.04;100.00
36600;BME280;35385;55.668;37.508;2023-01-28T03:21:27;100031.31;;;-0.39;100.00
36600;BME280;35385;55.668;37.508;2023-01-28T03:22:50;100021.69;;;-0.39;100.00
36600;BME280;35385;55.668;37.508;2023-01-28T03:24:17;99995.06;;;-0.54;100.00
36600;BME280;35385;55.668;37.508;2023-01-28T03:25:39;100020.88;;;-0.41;100.00
36600;BME280;35385;55.668;37.508;2023-01-28T03:27:20;100038.16;;;-0.33;100.00
36600;BME280;35385;55.668;37.508;2023-01-28T03:28:45;99948.31;;;-0.96;100.00
36600;BME280;35385;55.668;37.508;2023-01-28T03:30:13;99978.25;;;-0.75;100.00
36600;BME280;35385;55.668;37.508;2023-01-28T03:31:35;100030.56;;;-0.43;100.00
36600;BME280;35385;55.668;37.508;2023-01-28T03:32:55;100025.25;;;-0.41;100.00
36600;BME280;35385;55.668;37.508;2023-01-28T03:34:15;100022.44;;;-0.35;100.00
36600;BME280;35385;55.668;37.508;2023-01-28T03:35:35;100037.34;;;-0.36;100.00
36600;BME280;35385;55.668;37.508;2023-01-28T03:36:54;100034.84;;;-0.40;100.00
36600;BME280;35385;55.668;37.508;2023-01-28T03:37:56;100026.56;;;-0.54;100.00
36600;BME280;35385;55.668;37.508;2023-01-28T03:38:59;100016.31;;;-0.62;100.00
36600;BME280;35385;55.668;37.508;2023-01-28T03:40:03;100012.38;;;-0.75;100.00
36600;BME280;35385;55.668;37.508;2023-01-28T03:41:04;100016.66;;;-0.73;100.00
36600;BME280;35385;55.668;37.508;2023-01-28T03:42:10;99949.50;;;-1.06;100.00
36600;BME280;35385;55.668;37.508;2023-01-28T03:43:12;100013.31;;;-0.78;100.00
36600;BME280;35385;55.668;37.508;2023-01-28T03:44:12;100015.97;;;-0.79;100.00
36600;BME280;35385;55.668;37.508;2023-01-28T03:45:31;99961.22;;;-1.18;100.00
36600;BME280;35385;55.668;37.508;2023-01-28T03:46:32;100026.28;;;-0.73;100.00
36600;BME280;35385;55.668;37.508;2023-01-28T03:47:33;100022.56;;;-0.66;100.00
36600;BME280;35385;55.668;37.508;2023-01-28T03:48:33;100025.81;;;-0.58;100.00
36600;BME280;35385;55.668;37.508;2023-01-28T03:49:34;100030.75;;;-0.49;100.00
36600;BME280;35385;55.668;37.508;2023-01-28T03:50:34;99891.66;;;-1.29;100.00
36600;BME280;35385;55.668;37.508;2023-01-28T03:51:35;99964.56;;;-0.85;100.00
36600;BME280;35385;55.668;37.508;2023-01-28T03:52:35;100013.38;;;-0.53;100.00
36600;BME280;35385;55.668;37.508;2023-01-28T03:53:37;100018.47;;;-0.47;100.00
36600;BME280;35385;55.668;37.508;2023-01-28T03:54:39;100000.22;;;-0.51;100.00
36600;BME280;35385;55.668;37.508;2023-01-28T03:55:41;100022.81;;;-0.46;100.00
36600;BME280;35385;55.668;37.508;2023-01-28T03:56:41;100032.28;;;-0.42;100.00
36600;BME280;35385;55.668;37.508;2023-01-28T03:57:42;100021.09;;;-0.47;100.00
36600;BME280;35385;55.668;37.508;2023-01-28T03:58:43;100025.47;;;-0.47;100.00
36600;BME280;35385;55.668;37.508;2023-01-28T03:59:55;99929.56;;;-1.12;100.00
36600;BME280;35385;55.668;37.508;2023-01-28T04:00:56;100016.06;;;-0.54;100.00
36600;BME280;35385;55.668;37.508;2023-01-28T04:01:56;100023.84;;;-0.51;100.00
36600;BME280;35385;55.668;37.508;2023-01-28T04:02:57;100037.56;;;-0.43;100.00
36600;BME280;35385;55.668;37.508;2023-01-28T04:03:58;99933.50;;;-0.98;100.00
36600;BME280;35385;55.668;37.508;2023-01-28T04:04:58;99957.50;;;-0.83;100.00
36600;BME280;35385;55.668;37.508;2023-01-28T04:06:05;100025.22;;;-0.40;100.00
36600;BME280;35385;55.668;37.508;2023-01-28T04:07:07;100037.81;;;-0.51;100.00
36600;BME280;35385;55.668;37.508;2023-01-28T04:08:08;100019.63;;;-0.57;100.00
36600;BME280;35385;55.668;37.508;2023-01-28T04:09:08;100027.31;;;-0.51;100.00
36600;BME280;35385;55.668;37.508;2023-01-28T04:10:09;100013.47;;;-0.56;100.00
36600;BME280;35385;55.668;37.508;2023-01-28T04:11:09;100023.41;;;-0.65;100.00
36600;BME280;35385;55.668;37.508;2023-01-28T04:12:18;99933.09;;;-1.13;100.00
36600;BME280;35385;55.668;37.508;2023-01-28T04:13:19;100021.31;;;-0.54;100.00
36600;BME280;35385;55.668;37.508;2023-01-28T04:14:20;100018.25;;;-0.68;100.00
36600;BME280;35385;55.668;37.508;2023-01-28T04:15:20;100020.84;;;-0.67;100.00
36600;BME280;35385;55.668;37.508;2023-01-28T04:16:22;100038.59;;;-0.75;100.00
36600;BME280;35385;55.668;37.508;2023-01-28T04:17:22;99967.50;;;-1.23;100.00
36600;BME280;35385;55.668;37.508;2023-01-28T04:18:23;100015.97;;;-0.79;100.00
36600;BME280;35385;55.668;37.508;2023-01-28T04:19:27;100028.91;;;-0.73;100.00
36600;BME280;35385;55.668;37.508;2023-01-28T04:20:28;100018.91;;;-0.88;100.00
36600;BME280;35385;55.668;37.508;2023-01-28T04:21:29;100002.44;;;-0.93;100.00
36600;BME280;35385;55.668;37.508;2023-01-28T04:22:29;100019.97;;;-0.95;100.00
36600;BME280;35385;55.668;37.508;2023-01-28T04:23:30;99917.38;;;-1.71;100.00
36600;BME280;35385;55.668;37.508;2023-01-28T04:24:30;100008.38;;;-1.16;100.00
36600;BME280;35385;55.668;37.508;2023-01-28T04:25:31;100026.97;;;-0.96;100.00
36600;BME280;35385;55.668;37.508;2023-01-28T04:26:32;99885.94;;;-1.71;100.00
36600;BME280;35385;55.668;37.508;2023-01-28T04:27:32;99932.81;;;-1.31;100.00
36600;BME280;35385;55.668;37.508;2023-01-28T04:28:33;100020.31;;;-0.78;100.00
36600;BME280;35385;55.668;37.508;2023-01-28T04:29:33;100035.97;;;-0.75;100.00
36600;BME280;35385;55.668;37.508;2023-01-28T04:30:34;99939.44;;;-1.20;100.00
36600;BME280;35385;55.668;37.508;2023-01-28T04:31:35;100017.59;;;-0.75;100.00
36600;BME280;35385;55.668;37.508;2023-01-28T04:32:35;100000.16;;;-0.76;100.00
36600;BME280;35385;55.668;37.508;2023-01-28T04:33:36;99930.75;;;-1.22;100.00
36600;BME280;35385;55.668;37.508;2023-01-28T04:34:36;100000.53;;;-0.88;100.00
36600;BME280;35385;55.668;37.508;2023-01-28T04:35:37;100034.72;;;-0.91;100.00
36600;BME280;35385;55.668;37.508;2023-01-28T04:36:37;100017.81;;;-0.83;100.00
36600;BME280;35385;55.668;37.508;2023-01-28T04:37:40;100023.56;;;-0.70;100.00
36600;BME280;35385;55.668;37.508;2023-01-28T04:38:40;100018.59;;;-0.79;100.00
36600;BME280;35385;55.668;37.508;2023-01-28T04:39:41;99946.13;;;-1.39;100.00
36600;BME280;35385;55.668;37.508;2023-01-28T04:40:41;100008.44;;;-0.90;100.00
36600;BME280;35385;55.668;37.508;2023-01-28T04:41:42;99942.38;;;-1.30;100.00
36600;BME280;35385;55.668;37.508;2023-01-28T04:42:51;99960.50;;;-1.23;100.00
36600;BME280;35385;55.668;37.508;2023-01-28T04:43:52;100008.56;;;-0.94;100.00
36600;BME280;35385;55.668;37.508;2023-01-28T04:44:53;100021.50;;;-0.88;100.00
36600;BME280;35385;55.668;37.508;2023-01-28T04:45:53;100001.00;;;-1.03;100.00
36600;BME280;35385;55.668;37.508;2023-01-28T04:46:54;100026.63;;;-0.85;100.00
36600;BME280;35385;55.668;37.508;2023-01-28T04:47:54;100010.25;;;-0.92;100.00
36600;BME280;35385;55.668;37.508;2023-01-28T04:48:55;100003.38;;;-0.96;100.00
36600;BME280;35385;55.668;37.508;2023-01-28T04:49:55;99976.75;;;-1.12;100.00
36600;BME280;35385;55.668;37.508;2023-01-28T04:50:56;99957.06;;;-1.25;100.00
36600;BME280;35385;55.668;37.508;2023-01-28T04:51:57;99946.97;;;-1.38;100.00
36600;BME280;35385;55.668;37.508;2023-01-28T04:52:57;100031.19;;;-0.90;100.00
36600;BME280;35385;55.668;37.508;2023-01-28T04:53:58;100022.31;;;-0.86;100.00
36600;BME280;35385;55.668;37.508;2023-01-28T04:54:58;100012.88;;;-0.92;100.00
36600;BME280;35385;55.668;37.508;2023-01-28T04:56:00;100033.41;;;-0.77;100.00
36600;BME280;35385;55.668;37.508;2023-01-28T04:57:00;99918.28;;;-1.43;100.00
36600;BME280;35385;55.668;37.508;2023-01-28T04:58:01;100022.59;;;-0.95;100.00
36600;BME280;35385;55.668;37.508;2023-01-28T04:59:01;100013.28;;;-1.05;100.00
36600;BME280;35385;55.668;37.508;2023-01-28T05:00:03;100030.41;;;-0.94;100.00
36600;BME280;35385;55.668;37.508;2023-01-28T05:01:04;100026.00;;;-0.92;100.00
36600;BME280;35385;55.668;37.508;2023-01-28T05:02:05;100010.38;;;-0.96;100.00
36600;BME280;35385;55.668;37.508;2023-01-28T05:03:05;100044.00;;;-0.81;100.00
36600;BME280;35385;55.668;37.508;2023-01-28T05:04:06;100018.78;;;-0.85;100.00
36600;BME280;35385;55.668;37.508;2023-01-28T05:05:07;100019.41;;;-0.77;100.00
36600;BME280;35385;55.668;37.508;2023-01-28T05:06:10;99747.63;;;-2.45;100.00
36600;BME280;35385;55.668;37.508;2023-01-28T05:07:10;100028.09;;;-0.75;100.00
36600;BME280;35385;55.668;37.508;2023-01-28T05:08:11;100033.22;;;-0.72;100.00
36600;BME280;35385;55.668;37.508;2023-01-28T05:09:11;100028.97;;;-0.75;100.00
36600;BME280;35385;55.668;37.508;2023-01-28T05:10:12;100023.88;;;-0.81;100.00
36600;BME280;35385;55.668;37.508;2023-01-28T05:11:13;100025.53;;;-0.77;100.00
36600;BME280;35385;55.668;37.508;2023-01-28T05:12:13;99994.00;;;-1.03;100.00
36600;BME280;35385;55.668;37.508;2023-01-28T05:13:14;100049.09;;;-0.75;100.00
36600;BME280;35385;55.668;37.508;2023-01-28T05:14:14;100036.66;;;-0.70;100.00
36600;BME280;35385;55.668;37.508;2023-01-28T05:15:16;100045.44;;;-0.71;100.00
36600;BME280;35385;55.668;37.508;2023-01-28T05:16:17;100023.38;;;-0.92;100.00
36600;BME280;35385;55.668;37.508;2023-01-28T05:17:17;100040.63;;;-0.85;100.00
36600;BME280;35385;55.668;37.508;2023-01-28T05:18:19;100049.34;;;-0.84;100.00
36600;BME280;35385;55.668;37.508;2023-01-28T05:19:19;100041.88;;;-0.98;100.00
36600;BME280;35385;55.668;37.508;2023-01-28T05:20:20;100041.47;;;-1.14;100.00
36600;BME280;35385;55.668;37.508;2023-01-28T05:21:20;100034.50;;;-1.15;100.00
36600;BME280;35385;55.668;37.508;2023-01-28T05:22:21;100042.38;;;-1.15;100.00
36600;BME280;35385;55.668;37.508;2023-01-28T05:23:22;100056.75;;;-0.98;100.00
36600;BME280;35385;55.668;37.508;2023-01-28T05:24:22;100059.34;;;-0.97;100.00
36600;BME280;35385;55.668;37.508;2023-01-28T05:25:23;100047.06;;;-0.95;100.00
36600;BME280;35385;55.668;37.508;2023-01-28T05:26:24;100057.41;;;-0.90;100.00
36600;BME280;35385;55.668;37.508;2023-01-28T05:27:24;100059.22;;;-0.92;100.00
36600;BME280;35385;55.668;37.508;2023-01-28T05:28:25;99968.88;;;-1.41;100.00
36600;BME280;35385;55.668;37.508;2023-01-28T05:29:25;100044.47;;;-0.96;100.00
36600;BME280;35385;55.668;37.508;2023-01-28T05:30:26;100048.78;;;-0.94;100.00
36600;BME280;35385;55.668;37.508;2023-01-28T05:31:26;100050.41;;;-0.90;100.00
36600;BME280;35385;55.668;37.508;2023-01-28T05:32:27;100046.84;;;-0.87;100.00
36600;BME280;35385;55.668;37.508;2023-01-28T05:33:27;100055.25;;;-0.76;100.00
36600;BME280;35385;55.668;37.508;2023-01-28T05:34:28;100053.47;;;-0.76;100.00
36600;BME280;35385;55.668;37.508;2023-01-28T05:35:28;100045.56;;;-0.74;100.00
36600;BME280;35385;55.668;37.508;2023-01-28T05:36:29;100048.97;;;-0.72;100.00
36600;BME280;35385;55.668;37.508;2023-01-28T05:37:29;100046.69;;;-0.83;100.00
36600;BME280;35385;55.668;37.508;2023-01-28T05:38:30;100055.19;;;-0.75;100.00
36600;BME280;35385;55.668;37.508;2023-01-28T05:39:31;100053.53;;;-0.77;100.00
36600;BME280;35385;55.668;37.508;2023-01-28T05:40:31;100048.28;;;-0.77;100.00
36600;BME280;35385;55.668;37.508;2023-01-28T05:41:32;100041.06;;;-0.71;100.00
36600;BME280;35385;55.668;37.508;2023-01-28T05:42:33;100037.41;;;-0.65;100.00
36600;BME280;35385;55.668;37.508;2023-01-28T05:43:33;100039.13;;;-0.64;100.00
36600;BME280;35385;55.668;37.508;2023-01-28T05:44:34;100046.91;;;-0.61;100.00
36600;BME280;35385;55.668;37.508;2023-01-28T05:45:37;100046.13;;;-0.64;100.00
36600;BME280;35385;55.668;37.508;2023-01-28T05:46:37;100044.09;;;-0.84;100.00
36600;BME280;35385;55.668;37.508;2023-01-28T05:47:40;100055.28;;;-0.78;100.00
36600;BME280;35385;55.668;37.508;2023-01-28T05:48:40;100038.16;;;-0.89;100.00
36600;BME280;35385;55.668;37.508;2023-01-28T05:49:41;100070.03;;;-0.74;100.00
36600;BME280;35385;55.668;37.508;2023-01-28T05:50:41;100044.69;;;-0.75;100.00